Time;durP1;ratioP1;P1;durP2;ratioP2;P2;SDS_P1;SDS_P2;PMS_P1;PMS_P2;Temp;Humidity;BMP_temperature;BMP_pressure;BME280_temperature;BME280_humidity;BME280_pressure;Samples;Min_cycle;Max_cycle;Signal;HPM_P1;HPM_P2
2022/03/09 00:01:44;;;;;;;49.50;24.55;;;;;;;-1.71;67.09;93233.19;5096484;28;20028;-41
2022/03/09 00:04:10;;;;;;;39.67;20.00;;;;;;;-1.71;67.68;93236.63;5096603;28;20024;-41
2022/03/09 00:06:35;;;;;;;33.95;19.10;;;;;;;-1.73;67.18;93233.66;5093603;28;20459;-41
2022/03/09 00:09:01;;;;;;;37.22;20.20;;;;;;;-1.59;66.49;93234.78;5093432;28;20028;-41
2022/03/09 00:11:27;;;;;;;37.20;20.17;;;;;;;-1.64;66.42;93228.09;5078592;28;20028;-41
2022/03/09 00:13:52;;;;;;;55.53;29.73;;;;;;;-1.67;65.57;93234.44;5073111;28;20074;-41
2022/03/09 00:16:18;;;;;;;77.03;35.60;;;;;;;-1.64;65.44;93228.09;5073070;28;20405;-41
2022/03/09 00:18:43;;;;;;;52.88;28.48;;;;;;;-1.78;66.11;93230.88;5072767;28;20081;-41
2022/03/09 00:21:09;;;;;;;45.45;22.38;;;;;;;-1.77;66.24;93235.06;5072669;28;20025;-41
2022/03/09 00:23:34;;;;;;;37.70;20.52;;;;;;;-1.80;66.00;93244.16;5072963;28;20033;-41
2022/03/09 00:26:00;;;;;;;32.53;18.02;;;;;;;-1.86;65.50;93244.06;5072562;28;20029;-41
2022/03/09 00:28:25;;;;;;;33.65;17.40;;;;;;;-1.82;65.04;93244.59;5072837;28;20025;-41
2022/03/09 00:30:51;;;;;;;44.85;24.65;;;;;;;-1.85;65.75;93239.41;5088498;28;20035;-41
2022/03/09 00:33:16;;;;;;;37.53;21.10;;;;;;;-1.81;66.13;93229.13;5092564;28;20024;-41
2022/03/09 00:35:44;;;;;;;50.67;23.20;;;;;;;-1.85;66.28;93231.28;5092676;28;20081;-41
2022/03/09 00:38:10;;;;;;;33.47;19.45;;;;;;;-1.90;65.89;93227.31;5092831;28;20028;-41
2022/03/09 00:40:36;;;;;;;32.03;16.63;;;;;;;-1.96;65.11;93214.91;5092127;28;20024;-41
2022/03/09 00:43:02;;;;;;;35.50;18.65;;;;;;;-2.12;65.79;93213.50;5092425;28;20028;-41
2022/03/09 00:45:28;;;;;;;28.13;17.27;;;;;;;-1.95;65.89;93227.25;5092357;28;20020;-41
2022/03/09 00:47:53;;;;;;;63.08;19.95;;;;;;;-2.05;66.63;93223.91;5092684;28;20032;-42
2022/03/09 00:50:18;;;;;;;34.92;18.70;;;;;;;-2.19;66.36;93224.00;5092334;28;20024;-42
2022/03/09 00:52:47;;;;;;;37.80;19.80;;;;;;;-2.09;66.55;93212.56;5092270;28;20031;-41
2022/03/09 00:55:13;;;;;;;29.75;16.23;;;;;;;-2.13;66.21;93217.44;5092255;28;20032;-41
2022/03/09 00:57:38;;;;;;;30.63;16.92;;;;;;;-2.15;65.66;93219.88;5091997;28;20517;-42
2022/03/09 01:00:05;;;;;;;34.08;18.60;;;;;;;-2.27;66.14;93218.22;5092167;28;20028;-41
2022/03/09 01:02:30;;;;;;;34.30;18.40;;;;;;;-2.18;66.20;93214.66;5086984;28;20103;-41
2022/03/09 01:04:55;;;;;;;50.78;26.08;;;;;;;-2.18;65.88;93210.00;5072130;28;20051;-41
2022/03/09 01:07:21;;;;;;;48.17;26.23;;;;;;;-2.10;66.05;93208.34;5071737;28;20489;-41
2022/03/09 01:09:46;;;;;;;44.53;23.25;;;;;;;-2.09;64.82;93204.44;5071617;28;20036;-41
2022/03/09 01:12:12;;;;;;;34.17;19.75;;;;;;;-2.12;65.11;93199.97;5071959;28;20028;-41
2022/03/09 01:14:37;;;;;;;38.40;19.73;;;;;;;-2.36;65.78;93177.81;5071886;28;20024;-41
2022/03/09 01:17:03;;;;;;;36.67;18.67;;;;;;;-2.34;66.66;93194.31;5071915;28;20028;-42
2022/03/09 01:19:29;;;;;;;36.45;18.75;;;;;;;-2.45;66.14;93172.53;5071466;28;20405;-41
2022/03/09 01:21:54;;;;;;;35.80;21.13;;;;;;;-2.30;66.19;93200.97;5071704;28;20020;-41
2022/03/09 01:24:19;;;;;;;35.60;20.58;;;;;;;-2.33;67.17;93201.19;5071687;28;20032;-41
2022/03/09 01:26:45;;;;;;;33.33;19.10;;;;;;;-2.32;66.43;93198.00;5084440;28;20031;-42
2022/03/09 01:29:11;;;;;;;33.70;18.50;;;;;;;-2.28;65.78;93203.22;5091879;28;20405;-42
2022/03/09 01:31:36;;;;;;;33.08;18.42;;;;;;;-2.22;66.49;93192.47;5090658;28;20028;-41
2022/03/09 01:34:03;;;;;;;36.42;19.40;;;;;;;-2.26;65.20;93203.50;5091342;28;20024;-41
2022/03/09 01:36:28;;;;;;;35.58;18.65;;;;;;;-2.22;64.93;93198.63;5091695;28;20032;-42
2022/03/09 01:38:54;;;;;;;31.63;18.27;;;;;;;-2.33;65.37;93180.31;5091589;28;20038;-41
2022/03/09 01:41:19;;;;;;;38.55;19.77;;;;;;;-2.30;66.26;93178.63;5090942;28;20497;-41
2022/03/09 01:43:45;;;;;;;37.50;19.27;;;;;;;-2.37;66.18;93195.25;5091536;28;20016;-41
2022/03/09 01:46:10;;;;;;;35.08;17.83;;;;;;;-2.33;65.93;93196.53;5091322;28;20107;-41
2022/03/09 01:48:36;;;;;;;35.80;17.92;;;;;;;-2.28;65.46;93191.66;5091212;28;20036;-41
2022/03/09 01:51:01;;;;;;;37.40;19.05;;;;;;;-2.39;65.08;93182.22;5091171;28;20030;-41
2022/03/09 01:53:27;;;;;;;31.40;17.42;;;;;;;-2.30;65.98;93192.88;5091436;28;20103;-42
2022/03/09 01:55:53;;;;;;;34.60;20.85;;;;;;;-2.24;65.08;93203.78;5091156;28;20051;-42
2022/03/09 01:58:18;;;;;;;42.08;22.27;;;;;;;-2.22;64.80;93195.94;5090987;28;20035;-41
2022/03/09 02:00:44;;;;;;;49.75;25.23;;;;;;;-2.36;66.53;93199.44;5090938;28;20028;-42
2022/03/09 02:03:09;;;;;;;46.45;25.45;;;;;;;-2.38;66.26;93196.44;5080187;28;20028;-41
2022/03/09 02:05:35;;;;;;;40.15;22.40;;;;;;;-2.26;65.44;93195.38;5071043;28;20029;-42
2022/03/09 02:10:45;;;;;;;38.67;19.70;;;;;;;-2.12;63.37;93197.28;5070925;28;20022;-41
2022/03/09 02:13:10;;;;;;;35.45;19.92;;;;;;;-2.13;64.13;93200.47;5053047;28;20024;-41
2022/03/09 02:15:36;;;;;;;42.45;21.23;;;;;;;-2.13;64.96;93200.47;5070782;28;20031;-42
2022/03/09 02:18:02;;;;;;;35.28;18.83;;;;;;;-2.16;65.24;93198.69;5070794;28;20490;-41
2022/03/09 02:20:27;;;;;;;40.92;21.27;;;;;;;-2.17;64.60;93192.56;5070296;28;20060;-41
2022/03/09 02:22:53;;;;;;;40.00;22.33;;;;;;;-2.20;65.49;93195.44;5082497;28;20058;-42
2022/03/09 02:25:19;;;;;;;38.88;21.35;;;;;;;-2.27;66.45;93193.88;5090894;28;20034;-41
2022/03/09 02:27:45;;;;;;;35.40;19.27;;;;;;;-2.21;65.81;93191.28;5090598;28;20028;-41
2022/03/09 02:30:15;;;;;;;32.08;18.17;;;;;;;-2.31;65.48;93183.28;5089795;28;20048;-41
2022/03/09 02:32:42;;;;;;;32.00;18.13;;;;;;;-2.34;65.23;93186.19;5090515;28;20023;-41
2022/03/09 02:35:10;;;;;;;29.75;17.38;;;;;;;-2.28;65.63;93184.31;5090727;28;20019;-41
2022/03/09 02:37:36;;;;;;;40.08;22.77;;;;;;;-2.28;64.60;93191.66;5090422;28;20043;-41
2022/03/09 02:40:01;;;;;;;46.45;25.08;;;;;;;-2.27;64.83;93193.88;5090145;28;20022;-41
2022/03/09 02:42:27;;;;;;;39.55;20.00;;;;;;;-2.26;65.25;93189.22;5090556;28;20077;-42
2022/03/09 02:44:52;;;;;;;33.00;18.10;;;;;;;-2.16;64.76;93187.88;5090396;28;20493;-42
2022/03/09 02:47:17;;;;;;;30.92;17.88;;;;;;;-2.23;65.55;93191.72;5090253;28;20035;-41
2022/03/09 02:49:43;;;;;;;33.08;17.67;;;;;;;-2.20;64.69;93195.44;5090298;28;20035;-41
2022/03/09 02:52:08;;;;;;;30.77;17.25;;;;;;;-2.25;63.65;93198.84;5090591;28;20027;-41
2022/03/09 02:54:34;;;;;;;41.28;20.15;;;;;;;-2.29;64.75;93190.91;5090526;28;20036;-41
2022/03/09 02:56:59;;;;;;;39.25;21.30;;;;;;;-2.31;64.31;93196.06;5090110;28;20051;-41
2022/03/09 02:59:25;;;;;;;38.75;20.15;;;;;;;-2.48;63.71;93149.16;5090196;28;20024;-41
2022/03/09 03:01:50;;;;;;;33.92;18.40;;;;;;;-2.23;63.60;93185.59;5090348;28;20035;-42
2022/03/09 03:04:16;;;;;;;34.72;19.27;;;;;;;-2.32;63.39;93186.47;5070563;28;20052;-41
2022/03/09 03:06:41;;;;;;;26.23;14.23;;;;;;;-2.28;61.61;93187.00;5069933;28;20043;-41
2022/03/09 03:09:06;;;;;;;33.28;16.90;;;;;;;-2.26;63.59;93187.28;5069895;28;20036;-41
2022/03/09 03:11:32;;;;;;;35.55;18.88;;;;;;;-2.27;63.70;93188.47;5052120;28;20013;-41
2022/03/09 03:13:57;;;;;;;39.85;20.33;;;;;;;-2.35;63.68;93198.22;5070092;28;20036;-41
2022/03/09 03:16:23;;;;;;;33.22;19.10;;;;;;;-2.30;63.51;93192.88;5070189;28;20028;-42
2022/03/09 03:18:48;;;;;;;36.75;16.48;;;;;;;-2.27;63.57;93198.56;5079207;28;20082;-41
2022/03/09 03:21:14;;;;;;;44.78;22.38;;;;;;;-2.23;64.03;93199.13;5090182;28;20032;-41
2022/03/09 03:23:39;;;;;;;37.58;19.90;;;;;;;-2.18;64.16;93201.88;5090287;28;20043;-42
2022/03/09 03:26:05;;;;;;;39.75;20.50;;;;;;;-2.20;63.39;93206.25;5090234;28;20099;-41
2022/03/09 03:28:31;;;;;;;32.15;17.63;;;;;;;-2.20;62.80;93201.59;5090258;28;20479;-41
2022/03/09 03:30:57;;;;;;;32.45;17.80;;;;;;;-2.18;62.97;93206.53;5071777;28;20453;-42
2022/03/09 03:33:22;;;;;;;28.88;17.55;;;;;;;-2.24;62.88;93211.88;5090152;28;20027;-41
2022/03/09 03:35:48;;;;;;;29.05;17.30;;;;;;;-2.17;62.94;93203.38;5090128;28;20027;-41
2022/03/09 03:38:14;;;;;;;33.40;16.75;;;;;;;-2.09;62.68;93203.69;5090078;28;20111;-41
2022/03/09 03:40:39;;;;;;;37.03;18.77;;;;;;;-2.25;63.67;93207.69;5090186;28;20405;-42
2022/03/09 03:43:05;;;;;;;41.05;22.92;;;;;;;-2.37;64.67;93203.34;5094020;28;20036;-41
2022/03/09 03:45:31;;;;;;;31.35;17.88;;;;;;;-2.26;64.02;93200.78;5093699;28;20063;-41
2022/03/09 03:47:56;;;;;;;34.97;19.38;;;;;;;-2.27;62.50;93203.97;5093926;28;20118;-41
2022/03/09 03:50:22;;;;;;;34.85;17.52;;;;;;;-2.37;63.14;93195.25;5093998;28;20028;-42
2022/03/09 03:52:48;;;;;;;33.97;18.05;;;;;;;-2.36;63.19;93204.84;5093694;28;20447;-41
2022/03/09 03:55:14;;;;;;;37.65;21.13;;;;;;;-2.29;64.02;93201.72;5093708;28;20106;-41
2022/03/09 03:57:40;;;;;;;34.45;19.88;;;;;;;-2.38;63.77;93199.16;5093293;28;20528;-42
2022/03/09 04:00:07;;;;;;;34.25;17.27;;;;;;;-2.34;64.00;93203.16;5093625;28;20569;-41
2022/03/09 04:02:32;;;;;;;33.47;17.00;;;;;;;-2.43;64.22;93195.19;5093411;28;20024;-41
2022/03/09 04:04:58;;;;;;;30.10;15.73;;;;;;;-2.30;63.52;93198.28;5093195;28;20031;-42
2022/03/09 04:07:23;;;;;;;33.58;18.13;;;;;;;-2.20;63.61;93203.56;5093523;28;20103;-42
2022/03/09 04:09:49;;;;;;;33.25;17.60;;;;;;;-2.25;63.30;93199.56;5092716;28;20027;-41
2022/03/09 04:12:14;;;;;;;27.38;15.48;;;;;;;-2.25;63.66;93202.28;5072949;28;20024;-41
2022/03/09 04:14:40;;;;;;;29.38;15.75;;;;;;;-2.29;63.87;93199.03;5078772;28;20043;-41
2022/03/09 04:17:05;;;;;;;30.95;17.05;;;;;;;-2.32;63.72;93202.69;5093288;28;20036;-41
2022/03/09 04:19:31;;;;;;;42.33;21.38;;;;;;;-2.41;64.11;93192.00;5093274;28;20133;-41
2022/03/09 04:21:56;;;;;;;34.80;19.70;;;;;;;-2.38;64.85;93204.56;5092832;28;20454;-41
2022/03/09 04:24:21;;;;;;;40.72;22.40;;;;;;;-2.47;63.39;93191.91;5093139;28;20031;-41
2022/03/09 04:26:47;;;;;;;41.58;21.15;;;;;;;-2.39;63.45;93203.09;5093062;28;20051;-41
2022/03/09 04:29:13;;;;;;;33.97;17.92;;;;;;;-2.55;64.25;93201.63;5093075;28;20050;-41
2022/03/09 04:31:38;;;;;;;35.30;19.08;;;;;;;-2.60;64.85;93204.28;5093031;28;20521;-42
2022/03/09 04:34:04;;;;;;;31.83;16.52;;;;;;;-2.65;64.45;93202.97;5092986;28;20512;-41
2022/03/09 04:36:29;;;;;;;29.92;16.80;;;;;;;-2.71;64.90;93198.72;5092908;28;20522;-41
2022/03/09 04:38:55;;;;;;;30.50;16.65;;;;;;;-2.65;64.10;93197.56;5092871;28;20394;-42
2022/03/09 04:41:21;;;;;;;31.00;17.13;;;;;;;-2.77;64.18;93184.38;5105844;28;20028;-41
2022/03/09 04:43:47;;;;;;;36.50;16.75;;;;;;;-2.82;65.80;93195.84;5113237;28;20107;-41
2022/03/09 04:46:12;;;;;;;38.75;20.65;;;;;;;-2.93;66.39;93206.47;5112494;28;20034;-41
2022/03/09 04:48:37;;;;;;;40.97;20.88;;;;;;;-2.92;65.50;93210.69;5113056;28;20031;-41
2022/03/09 04:51:04;;;;;;;37.08;19.17;;;;;;;-2.94;64.01;93216.53;5113033;28;20034;-42
2022/03/09 04:53:30;;;;;;;35.00;16.98;;;;;;;-2.98;63.95;93207.13;5112151;28;20114;-41
2022/03/09 04:55:56;;;;;;;32.50;16.42;;;;;;;-3.16;63.83;93214.22;5112730;28;20044;-41
2022/03/09 04:58:22;;;;;;;27.60;15.40;;;;;;;-3.13;63.48;93217.94;5112964;28;20394;-41
2022/03/09 05:00:48;;;;;;;29.42;16.30;;;;;;;-3.15;63.47;93213.03;5112644;28;20155;-41
2022/03/09 05:03:14;;;;;;;30.83;17.23;;;;;;;-3.29;63.71;93189.47;5101164;28;20493;-41
2022/03/09 05:05:39;;;;;;;41.72;19.20;;;;;;;-3.35;64.11;93212.94;5092018;28;20078;-41
2022/03/09 05:08:05;;;;;;;54.17;24.88;;;;;;;-3.41;64.12;93201.31;5092034;28;20115;-41
2022/03/09 05:10:30;;;;;;;47.78;21.38;;;;;;;-3.35;64.39;93212.94;5088035;28;20028;-41
2022/03/09 05:12:55;;;;;;;45.03;18.90;;;;;;;-3.52;65.23;93217.31;5091830;28;20077;-41
2022/03/09 05:15:21;;;;;;;35.65;17.60;;;;;;;-3.54;65.10;93217.03;5091864;28;20024;-41
2022/03/09 05:17:46;;;;;;;36.78;17.88;;;;;;;-3.39;64.81;93223.16;5091835;28;20110;-41
2022/03/09 05:20:15;;;;;;;32.97;17.92;;;;;;;-3.29;63.68;93219.16;5092050;28;20020;-41
2022/03/09 05:22:41;;;;;;;52.13;22.88;;;;;;;-3.38;64.47;93224.66;5091988;28;20055;-41
2022/03/09 05:25:07;;;;;;;69.38;29.50;;;;;;;-3.47;64.12;93208.56;5091673;28;20067;-41
2022/03/09 05:27:33;;;;;;;37.55;20.85;;;;;;;-3.32;64.90;93230.16;5091594;28;20023;-41
2022/03/09 05:29:58;;;;;;;38.88;19.98;;;;;;;-3.31;64.52;93240.47;5091642;28;20020;-41
2022/03/09 05:32:24;;;;;;;45.58;21.50;;;;;;;-3.41;65.22;93241.03;5091489;28;20016;-41
2022/03/09 05:34:50;;;;;;;43.03;21.48;;;;;;;-3.46;65.77;93245.13;5091445;28;20153;-41
2022/03/09 05:37:17;;;;;;;44.47;21.50;;;;;;;-3.37;65.46;93239.66;5091502;28;20019;-41
2022/03/09 05:39:42;;;;;;;37.53;18.80;;;;;;;-3.28;64.64;93242.25;5091683;28;20047;-41
2022/03/09 05:42:08;;;;;;;37.47;18.23;;;;;;;-3.16;66.16;93243.94;5111329;28;20500;-41
2022/03/09 05:44:34;;;;;;;34.10;16.35;;;;;;;-2.98;64.63;93242.25;5111677;28;20030;-41
2022/03/09 05:46:59;;;;;;;32.63;17.45;;;;;;;-2.85;63.49;93243.44;5111978;28;20099;-41
2022/03/09 05:49:25;;;;;;;33.65;18.48;;;;;;;-2.85;64.25;93242.69;5111628;28;20030;-42
2022/03/09 05:51:52;;;;;;;31.08;18.17;;;;;;;-2.66;65.27;93243.97;5111819;28;20015;-41
2022/03/09 05:54:18;;;;;;;25.45;14.15;;;;;;;-2.54;64.04;93245.63;5111480;28;20023;-41
2022/03/09 05:56:44;;;;;;;28.55;15.63;;;;;;;-2.32;63.78;93243.25;5111429;28;20437;-41
2022/03/09 05:59:09;;;;;;;27.98;16.52;;;;;;;-2.34;63.09;93207.81;5111759;28;20031;-41
2022/03/09 06:01:35;;;;;;;27.08;15.98;;;;;;;-2.00;61.93;93252.25;5111307;28;20046;-41
2022/03/09 06:04:02;;;;;;;33.50;17.35;;;;;;;-1.90;61.20;93251.66;5092793;28;20027;-42
2022/03/09 06:06:28;;;;;;;31.73;18.02;;;;;;;-1.79;61.83;93251.78;5090525;28;20107;-41
2022/03/09 06:08:53;;;;;;;26.90;15.00;;;;;;;-1.56;60.37;93260.91;5090933;28;20024;-42
2022/03/09 06:11:19;;;;;;;27.58;14.73;;;;;;;-1.35;59.22;93253.50;5091031;28;20019;-42
2022/03/09 06:13:45;;;;;;;24.92;15.38;;;;;;;-1.18;58.77;93262.53;5091116;28;20626;-41
2022/03/09 06:16:10;;;;;;;32.65;16.65;;;;;;;-1.15;59.48;93239.91;5091001;28;20040;-41
2022/03/09 06:18:36;;;;;;;28.25;16.42;;;;;;;-0.95;58.21;93239.81;5090730;28;20405;-41
2022/03/09 06:21:02;;;;;;;27.27;15.32;;;;;;;-0.60;57.13;93256.63;5090847;28;20028;-42
2022/03/09 06:23:27;;;;;;;24.92;14.38;;;;;;;-0.47;57.30;93265.09;5090712;28;20630;-41
2022/03/09 06:25:53;;;;;;;27.02;15.35;;;;;;;-0.48;56.49;93263.63;5090914;28;20023;-41
2022/03/09 06:28:18;;;;;;;25.75;15.57;;;;;;;-0.34;54.99;93254.59;5090777;28;20020;-41
2022/03/09 06:30:44;;;;;;;28.52;16.52;;;;;;;-0.50;54.99;93257.97;5090850;28;20027;-41
2022/03/09 06:33:10;;;;;;;24.55;13.32;;;;;;;-0.52;54.75;93260.38;5090449;28;20493;-41
2022/03/09 06:35:35;;;;;;;24.55;14.13;;;;;;;-0.44;55.57;93261.44;5090852;28;20027;-41
2022/03/09 06:38:01;;;;;;;28.48;16.92;;;;;;;-0.01;54.92;93257.53;5090501;28;20099;-41
2022/03/09 06:40:26;;;;;;;32.78;17.90;;;;;;;0.36;54.68;93264.84;5089932;28;20027;-41
2022/03/09 06:42:52;;;;;;;30.40;16.92;;;;;;;0.75;53.43;93277.34;5090333;28;20028;-41
2022/03/09 06:45:18;;;;;;;28.17;17.25;;;;;;;0.80;54.66;93269.69;5090535;28;20024;-42
2022/03/09 06:47:43;;;;;;;45.25;22.15;;;;;;;1.86;52.21;93276.72;5090645;28;20099;-41
2022/03/09 06:50:10;;;;;;;36.47;20.42;;;;;;;3.52;49.41;93270.56;5090476;28;20093;-42
2022/03/09 06:52:35;;;;;;;24.67;16.50;;;;;;;4.66;44.76;93271.94;5090256;28;20016;-42
2022/03/09 06:55:07;;;;;;;46.33;24.33;;;;;;;6.13;40.98;93275.09;5090180;28;20028;-42
2022/03/09 06:57:33;;;;;;;47.58;27.30;;;;;;;7.86;37.53;93275.84;5073060;28;20083;-41
2022/03/09 06:59:59;;;;;;;34.17;20.65;;;;;;;8.93;35.64;93275.41;5090134;28;20031;-41
2022/03/09 07:02:25;;;;;;;29.77;19.75;;;;;;;9.60;34.10;93265.97;5090463;28;20169;-42
2022/03/09 07:04:51;;;;;;;31.42;21.05;;;;;;;10.00;32.65;93274.53;5090005;28;20040;-41
2022/03/09 07:07:16;;;;;;;27.02;20.08;;;;;;;10.42;32.09;93276.44;5090038;28;20111;-41
2022/03/09 07:09:42;;;;;;;30.25;18.58;;;;;;;10.77;31.28;93274.75;5090336;28;20032;-42
2022/03/09 07:12:08;;;;;;;24.92;17.23;;;;;;;10.37;31.72;93274.59;5090013;28;20023;-42
2022/03/09 07:14:34;;;;;;;26.02;18.45;;;;;;;10.31;31.77;93279.56;5090286;28;20028;-41
2022/03/09 07:16:59;;;;;;;26.25;18.38;;;;;;;10.28;31.34;93272.41;5092861;28;20105;-42
2022/03/09 07:19:24;;;;;;;26.77;19.08;;;;;;;10.26;31.80;93282.50;5094398;28;20024;-41
2022/03/09 07:21:50;;;;;;;28.13;19.73;;;;;;;10.98;30.59;93278.03;5094192;28;20031;-41
2022/03/09 07:24:15;;;;;;;32.40;19.60;;;;;;;11.24;30.60;93285.91;5094083;28;20032;-41
2022/03/09 07:26:42;;;;;;;25.70;18.33;;;;;;;11.28;30.02;93277.97;5094288;28;20032;-41
2022/03/09 07:29:09;;;;;;;31.60;23.35;;;;;;;11.31;29.78;93278.88;5093958;28;20028;-41
2022/03/09 07:31:35;;;;;;;26.83;20.33;;;;;;;11.86;29.06;93278.88;5094156;28;20482;-41
2022/03/09 07:34:01;;;;;;;23.52;18.45;;;;;;;12.47;28.61;93273.69;5094082;28;20028;-41
2022/03/09 07:36:26;;;;;;;24.15;18.38;;;;;;;12.69;27.55;93273.50;5093788;28;20535;-42
2022/03/09 07:38:52;;;;;;;22.33;17.33;;;;;;;12.59;27.35;93269.16;5094052;28;20016;-41
2022/03/09 07:41:17;;;;;;;32.00;19.75;;;;;;;13.09;26.95;93248.41;5093610;28;20409;-41
2022/03/09 07:43:42;;;;;;;25.30;19.02;;;;;;;13.68;26.07;93271.22;5094007;28;20024;-42
2022/03/09 07:46:09;;;;;;;27.52;21.58;;;;;;;13.88;26.03;93268.59;5093936;28;20504;-42
2022/03/09 07:48:35;;;;;;;25.15;19.17;;;;;;;13.51;26.52;93270.50;5093585;28;20028;-42
2022/03/09 07:51:00;;;;;;;26.23;19.50;;;;;;;13.51;26.14;93268.44;5093452;28;20035;-41
2022/03/09 07:53:26;;;;;;;23.17;17.90;;;;;;;13.72;25.82;93268.03;5093526;28;20074;-41
2022/03/09 07:55:51;;;;;;;26.77;19.45;;;;;;;13.66;25.59;93271.03;5093544;28;20151;-41
2022/03/09 07:58:17;;;;;;;24.67;17.27;;;;;;;13.69;26.77;93267.13;5093463;28;20122;-41
2022/03/09 08:00:42;;;;;;;22.60;17.35;;;;;;;12.94;26.20;93256.84;5093236;28;20031;-41
2022/03/09 08:03:08;;;;;;;26.05;19.10;;;;;;;13.49;25.70;93259.97;5083162;28;20482;-41
2022/03/09 08:05:34;;;;;;;30.40;23.00;;;;;;;13.50;27.16;93260.72;5073102;28;20043;-41
2022/03/09 08:07:59;;;;;;;27.20;18.92;;;;;;;12.97;25.80;93258.50;5073158;28;20035;-41
2022/03/09 08:10:25;;;;;;;29.15;19.25;;;;;;;10.90;28.62;93262.78;5072847;28;20405;-41
2022/03/09 08:12:51;;;;;;;30.80;18.73;;;;;;;11.00;29.14;93267.16;5072895;28;20066;-41
2022/03/09 08:15:16;;;;;;;29.20;18.40;;;;;;;11.75;27.20;93265.47;5072805;28;20029;-41
2022/03/09 08:17:41;;;;;;;26.42;18.77;;;;;;;12.54;27.13;93259.78;5072780;28;20024;-41
2022/03/09 08:20:07;;;;;;;22.95;16.95;;;;;;;13.43;25.64;93258.75;5073052;28;20021;-41
2022/03/09 08:22:33;;;;;;;22.95;17.85;;;;;;;14.08;25.64;93253.50;5072886;28;20021;-41
2022/03/09 08:24:58;;;;;;;23.33;18.85;;;;;;;14.46;25.40;93250.94;5072924;28;20035;-42
2022/03/09 08:27:24;;;;;;;22.52;16.40;;;;;;;13.34;25.03;93254.59;5071800;28;20494;-41
2022/03/09 08:29:50;;;;;;;24.42;19.33;;;;;;;13.03;26.73;93249.94;5072864;28;20090;-41
2022/03/09 08:32:19;;;;;;;23.63;17.63;;;;;;;13.44;27.27;93235.28;5072817;28;20028;-41
2022/03/09 08:34:44;;;;;;;24.05;18.30;;;;;;;14.22;25.06;93254.59;5072908;28;20029;-41
2022/03/09 08:37:10;;;;;;;21.95;16.75;;;;;;;14.22;26.03;93249.03;5072371;28;20586;-41
2022/03/09 08:39:35;;;;;;;22.70;17.02;;;;;;;14.77;24.44;93251.19;5072685;28;20021;-41
2022/03/09 08:42:01;;;;;;;19.80;16.15;;;;;;;15.22;24.39;93246.88;5091356;28;20032;-41
2022/03/09 08:44:26;;;;;;;20.13;15.85;;;;;;;15.26;23.65;93247.91;5092812;28;20024;-41
2022/03/09 08:46:53;;;;;;;20.30;15.00;;;;;;;15.34;23.47;93248.50;5092783;28;20558;-42
2022/03/09 08:49:19;;;;;;;21.58;15.57;;;;;;;16.05;22.87;93248.75;5092635;28;20028;-41
2022/03/09 08:51:44;;;;;;;20.05;16.75;;;;;;;16.26;23.06;93248.88;5092415;28;20569;-42
2022/03/09 08:54:10;;;;;;;21.17;16.67;;;;;;;16.13;22.74;93246.56;5092336;28;20027;-42
2022/03/09 08:56:36;;;;;;;26.48;19.88;;;;;;;16.48;22.14;93242.03;5091992;28;20048;-41
2022/03/09 08:59:01;;;;;;;23.25;16.70;;;;;;;16.17;23.33;93251.66;5092514;28;20016;-41
2022/03/09 09:01:26;;;;;;;23.05;15.60;;;;;;;16.58;22.33;93251.13;5092350;28;20028;-41
2022/03/09 09:03:52;;;;;;;23.42;17.65;;;;;;;16.68;22.23;93234.34;5092005;28;20035;-41
2022/03/09 09:06:17;;;;;;;21.67;16.10;;;;;;;17.02;22.46;93241.50;5092374;28;20081;-41
2022/03/09 09:08:43;;;;;;;19.77;16.38;;;;;;;15.87;21.67;93247.47;5092331;28;20438;-41
2022/03/09 09:11:08;;;;;;;46.88;29.80;;;;;;;14.15;24.25;93253.41;5080476;28;20016;-41
2022/03/09 09:13:34;;;;;;;29.13;21.58;;;;;;;12.94;25.95;93243.72;5071696;28;20422;-41
2022/03/09 09:16:00;;;;;;;22.60;17.00;;;;;;;12.03;27.12;93254.81;5071624;28;20027;-41
2022/03/09 09:18:25;;;;;;;22.02;16.23;;;;;;;12.47;26.79;93246.00;5071665;28;20024;-41
2022/03/09 09:20:51;;;;;;;23.55;15.90;;;;;;;11.57;26.91;93248.00;5071734;28;20039;-41
2022/03/09 09:23:17;;;;;;;31.50;21.65;;;;;;;10.63;29.70;93246.63;5071817;28;20509;-41
2022/03/09 09:25:42;;;;;;;30.80;20.90;;;;;;;11.14;29.77;93245.59;5071740;28;20054;-41
2022/03/09 09:28:08;;;;;;;21.80;15.82;;;;;;;12.21;28.42;93244.53;5071432;28;20486;-41
2022/03/09 09:30:34;;;;;;;23.55;16.60;;;;;;;12.78;26.64;93242.41;5071416;28;20028;-41
2022/03/09 09:33:00;;;;;;;21.50;16.48;;;;;;;14.17;26.20;93239.66;5071334;28;20032;-40
2022/03/09 09:35:25;;;;;;;21.05;15.65;;;;;;;14.65;25.32;93231.56;5071319;28;20024;-41
2022/03/09 09:37:51;;;;;;;21.83;16.27;;;;;;;15.54;23.97;93238.13;5071477;28;20035;-40
2022/03/09 09:40:17;;;;;;;18.85;14.10;;;;;;;15.58;24.14;93238.41;5075576;28;20416;-41
2022/03/09 09:42:44;;;;;;;17.73;15.75;;;;;;;15.10;23.99;93230.75;5091323;28;20511;-41
2022/03/09 09:45:10;;;;;;;21.95;16.63;;;;;;;15.36;24.11;93237.50;5091548;28;20024;-41
2022/03/09 09:47:35;;;;;;;21.58;16.38;;;;;;;15.45;24.27;93236.06;5091413;28;20031;-42
2022/03/09 09:50:02;;;;;;;20.80;16.10;;;;;;;15.87;24.01;93247.47;5091516;28;20016;-42
2022/03/09 09:52:29;;;;;;;20.60;15.75;;;;;;;15.95;24.06;93245.25;5091234;28;20028;-41
2022/03/09 09:54:56;;;;;;;19.73;14.23;;;;;;;16.01;22.63;93237.34;5091560;28;20031;-41
2022/03/09 09:57:23;;;;;;;19.55;15.43;;;;;;;15.14;24.12;93236.63;5090880;28;20044;-41
2022/03/09 09:59:51;;;;;;;28.95;16.00;;;;;;;15.45;24.03;93227.72;5091099;28;20162;-41
2022/03/09 10:02:17;;;;;;;31.83;18.02;;;;;;;16.38;22.99;93238.56;5088056;28;20020;-41
2022/03/09 10:04:42;;;;;;;19.20;14.10;;;;;;;17.14;21.17;93234.69;5070998;28;20025;-41
2022/03/09 10:07:08;;;;;;;20.58;15.40;;;;;;;17.16;20.98;93242.44;5070709;28;20532;-41
2022/03/09 10:09:38;;;;;;;18.23;13.38;;;;;;;16.62;20.22;93237.47;5070882;28;20021;-41
2022/03/09 10:12:06;;;;;;;15.30;12.70;;;;;;;15.04;19.70;93233.09;5070891;28;20024;-41
2022/03/09 10:14:50;;;;;;;37.63;21.40;;;;;;;15.79;22.51;93230.91;5070494;28;20024;-41
2022/03/09 10:17:25;;;;;;;31.88;21.90;;;;;;;15.63;21.76;93229.03;5070913;28;20024;-41
2022/03/09 10:19:54;;;;;;;18.45;13.45;;;;;;;16.32;23.17;93224.22;5070779;28;20063;-41
2022/03/09 10:22:26;;;;;;;18.50;14.15;;;;;;;17.06;22.18;93223.00;5070707;28;20123;-41
2022/03/09 10:24:52;;;;;;;15.73;11.25;;;;;;;17.18;21.53;93229.38;5070713;28;20020;-41
2022/03/09 10:27:39;;;;;;;16.83;13.88;;;;;;;17.56;21.22;93220.00;5070479;28;20027;-41
2022/03/09 10:30:13;;;;;;;17.67;14.57;;;;;;;17.55;21.70;93215.00;5070444;28;20107;-41
2022/03/09 10:32:54;;;;;;;14.32;10.80;;;;;;;16.66;19.50;93220.28;5070679;28;20024;-41
2022/03/09 10:35:31;;;;;;;8.82;7.50;;;;;;;17.01;18.83;93226.84;5070587;28;20016;-41
2022/03/09 10:38:07;;;;;;;14.20;10.25;;;;;;;15.24;21.29;93227.56;5070560;28;20079;-41
2022/03/09 10:40:46;;;;;;;9.30;8.32;;;;;;;14.69;23.49;93222.78;5059568;28;20445;-41
2022/03/09 10:43:19;;;;;;;10.48;8.07;;;;;;;13.92;21.58;93216.91;5090378;28;20032;-41
2022/03/09 10:46:02;;;;;;;10.05;7.47;;;;;;;13.30;23.68;93226.56;5090399;28;20020;-41
2022/03/09 10:48:50;;;;;;;13.32;10.05;;;;;;;11.26;25.55;93227.31;5090252;28;20026;-40
2022/03/09 10:51:40;;;;;;;10.98;8.55;;;;;;;10.15;26.62;93227.69;5090065;28;20107;-40
2022/03/09 10:54:08;;;;;;;17.00;10.70;;;;;;;8.94;29.94;93221.84;5072371;28;20028;-41
2022/03/09 10:56:35;;;;;;;19.70;11.90;;;;;;;8.30;31.58;93225.31;5090146;28;20066;-41
2022/03/09 10:59:16;;;;;;;13.10;9.65;;;;;;;7.72;32.35;93218.75;5090220;28;20501;-41
2022/03/09 11:01:43;;;;;;;12.82;8.68;;;;;;;7.36;32.16;93224.78;5090119;28;20043;-41
2022/03/09 11:04:17;;;;;;;10.85;8.32;;;;;;;6.95;32.03;93229.47;5071614;28;20031;-41
2022/03/09 11:06:46;;;;;;;12.18;9.43;;;;;;;6.85;36.00;93231.88;5069922;28;20036;-41
2022/03/09 11:09:17;;;;;;;12.57;8.45;;;;;;;6.86;34.42;93223.13;5070237;28;20023;-41
2022/03/09 11:11:45;;;;;;;11.45;7.82;;;;;;;7.03;31.82;93222.78;5070080;28;20024;-40
2022/03/09 11:14:12;;;;;;;10.80;7.28;;;;;;;6.83;33.10;93226.94;5070172;28;20108;-40
2022/03/09 11:16:37;;;;;;;14.13;8.93;;;;;;;6.70;33.39;93218.72;5069877;28;20024;-40
2022/03/09 11:19:03;;;;;;;11.07;7.82;;;;;;;6.32;33.84;93224.94;5052296;28;20027;-41